sensor_id;sensor_type;location;lat;lon;timestamp;temperature;humidity
75281;HTU21D;63874;47.230;39.620;2023-03-24T00:01:13;11.84;61.44
75281;HTU21D;63874;47.230;39.620;2023-03-24T00:03:40;11.84;61.47
75281;HTU21D;63874;47.230;39.620;2023-03-24T00:06:06;11.83;61.55
75281;HTU21D;63874;47.230;39.620;2023-03-24T00:08:36;11.82;61.57
75281;HTU21D;63874;47.230;39.620;2023-03-24T00:11:04;11.83;61.59
75281;HTU21D;63874;47.230;39.620;2023-03-24T00:13:32;11.85;61.62
75281;HTU21D;63874;47.230;39.620;2023-03-24T00:16:13;11.86;61.64
75281;HTU21D;63874;47.230;39.620;2023-03-24T00:18:39;11.87;61.56
75281;HTU21D;63874;47.230;39.620;2023-03-24T00:21:06;11.88;61.56
75281;HTU21D;63874;47.230;39.620;2023-03-24T00:23:33;11.90;61.48
75281;HTU21D;63874;47.230;39.620;2023-03-24T00:26:08;11.93;61.53
75281;HTU21D;63874;47.230;39.620;2023-03-24T00:28:37;11.94;61.44
75281;HTU21D;63874;47.230;39.620;2023-03-24T00:31:05;11.96;61.43
75281;HTU21D;63874;47.230;39.620;2023-03-24T00:33:31;11.97;61.43
75281;HTU21D;63874;47.230;39.620;2023-03-24T00:36:01;12.00;61.35
75281;HTU21D;63874;47.230;39.620;2023-03-24T00:38:28;11.98;61.36
75281;HTU21D;63874;47.230;39.620;2023-03-24T00:40:54;12.00;61.34
75281;HTU21D;63874;47.230;39.620;2023-03-24T00:43:20;12.02;61.32
75281;HTU21D;63874;47.230;39.620;2023-03-24T00:45:46;12.03;61.31
75281;HTU21D;63874;47.230;39.620;2023-03-24T00:48:14;12.05;61.29
75281;HTU21D;63874;47.230;39.620;2023-03-24T00:50:44;12.06;61.24
75281;HTU21D;63874;47.230;39.620;2023-03-24T00:53:10;12.10;61.20
75281;HTU21D;63874;47.230;39.620;2023-03-24T00:55:36;12.12;61.18
75281;HTU21D;63874;47.230;39.620;2023-03-24T00:58:05;12.14;61.18
75281;HTU21D;63874;47.230;39.620;2023-03-24T01:00:31;12.14;61.13
75281;HTU21D;63874;47.230;39.620;2023-03-24T01:02:57;12.15;61.08
75281;HTU21D;63874;47.230;39.620;2023-03-24T01:05:26;12.16;61.06
75281;HTU21D;63874;47.230;39.620;2023-03-24T01:07:56;12.16;61.05
75281;HTU21D;63874;47.230;39.620;2023-03-24T01:10:23;12.17;61.09
75281;HTU21D;63874;47.230;39.620;2023-03-24T01:12:52;12.17;61.07
75281;HTU21D;63874;47.230;39.620;2023-03-24T01:15:21;12.19;61.07
75281;HTU21D;63874;47.230;39.620;2023-03-24T01:17:49;12.19;61.05
75281;HTU21D;63874;47.230;39.620;2023-03-24T01:20:18;12.20;61.02
75281;HTU21D;63874;47.230;39.620;2023-03-24T01:22:44;12.19;60.99
75281;HTU21D;63874;47.230;39.620;2023-03-24T01:25:13;12.19;61.03
75281;HTU21D;63874;47.230;39.620;2023-03-24T01:27:45;12.19;61.02
75281;HTU21D;63874;47.230;39.620;2023-03-24T01:30:13;12.18;61.03
75281;HTU21D;63874;47.230;39.620;2023-03-24T01:32:40;12.17;61.04
75281;HTU21D;63874;47.230;39.620;2023-03-24T01:35:06;12.14;61.02
75281;HTU21D;63874;47.230;39.620;2023-03-24T01:37:33;12.13;61.10
75281;HTU21D;63874;47.230;39.620;2023-03-24T01:39:59;12.13;61.12
75281;HTU21D;63874;47.230;39.620;2023-03-24T01:42:28;12.11;61.18
75281;HTU21D;63874;47.230;39.620;2023-03-24T01:44:58;12.10;61.22
75281;HTU21D;63874;47.230;39.620;2023-03-24T01:47:25;12.10;61.24
75281;HTU21D;63874;47.230;39.620;2023-03-24T01:49:57;12.06;61.31
75281;HTU21D;63874;47.230;39.620;2023-03-24T01:52:34;12.06;61.33
75281;HTU21D;63874;47.230;39.620;2023-03-24T01:55:13;12.05;61.34
75281;HTU21D;63874;47.230;39.620;2023-03-24T01:57:48;12.01;61.40
75281;HTU21D;63874;47.230;39.620;2023-03-24T02:00:17;11.99;61.43
75281;HTU21D;63874;47.230;39.620;2023-03-24T02:03:09;11.94;61.49
75281;HTU21D;63874;47.230;39.620;2023-03-24T02:05:45;11.93;61.54
75281;HTU21D;63874;47.230;39.620;2023-03-24T02:08:21;11.89;61.67
75281;HTU21D;63874;47.230;39.620;2023-03-24T02:10:50;11.87;61.70
75281;HTU21D;63874;47.230;39.620;2023-03-24T02:13:18;11.84;61.84
75281;HTU21D;63874;47.230;39.620;2023-03-24T02:16:13;11.83;61.97
75281;HTU21D;63874;47.230;39.620;2023-03-24T02:25:11;11.73;62.08
75281;HTU21D;63874;47.230;39.620;2023-03-24T02:27:59;11.70;62.35
75281;HTU21D;63874;47.230;39.620;2023-03-24T02:33:34;11.59;62.51
75281;HTU21D;63874;47.230;39.620;2023-03-24T02:44:40;11.31;63.02
75281;HTU21D;63874;47.230;39.620;2023-03-24T02:47:18;11.27;63.14
75281;HTU21D;63874;47.230;39.620;2023-03-24T02:52:28;11.17;63.44
75281;HTU21D;63874;47.230;39.620;2023-03-24T02:55:11;11.12;63.45
75281;HTU21D;63874;47.230;39.620;2023-03-24T02:57:54;11.08;63.48
75281;HTU21D;63874;47.230;39.620;2023-03-24T03:00:48;11.03;63.60
75281;HTU21D;63874;47.230;39.620;2023-03-24T03:03:41;10.98;63.76
75281;HTU21D;63874;47.230;39.620;2023-03-24T03:06:17;10.95;64.08
75281;HTU21D;63874;47.230;39.620;2023-03-24T03:08:47;10.95;64.26
75281;HTU21D;63874;47.230;39.620;2023-03-24T03:11:15;10.95;64.40
75281;HTU21D;63874;47.230;39.620;2023-03-24T03:13:47;10.95;64.41
75281;HTU21D;63874;47.230;39.620;2023-03-24T03:16:31;10.98;64.47
75281;HTU21D;63874;47.230;39.620;2023-03-24T03:19:06;10.96;64.37
75281;HTU21D;63874;47.230;39.620;2023-03-24T03:21:40;10.97;64.36
75281;HTU21D;63874;47.230;39.620;2023-03-24T03:24:11;10.97;64.36
75281;HTU21D;63874;47.230;39.620;2023-03-24T03:26:41;10.97;64.53
75281;HTU21D;63874;47.230;39.620;2023-03-24T03:29:15;10.98;64.53
75281;HTU21D;63874;47.230;39.620;2023-03-24T03:32:09;10.96;64.54
75281;HTU21D;63874;47.230;39.620;2023-03-24T03:34:45;10.93;64.54
75281;HTU21D;63874;47.230;39.620;2023-03-24T03:37:32;10.93;64.65
75281;HTU21D;63874;47.230;39.620;2023-03-24T03:40:05;10.87;64.67
75281;HTU21D;63874;47.230;39.620;2023-03-24T03:42:36;10.85;64.76
75281;HTU21D;63874;47.230;39.620;2023-03-24T03:45:04;10.86;64.85
75281;HTU21D;63874;47.230;39.620;2023-03-24T03:47:31;10.84;64.80
75281;HTU21D;63874;47.230;39.620;2023-03-24T03:49:57;10.85;64.79
75281;HTU21D;63874;47.230;39.620;2023-03-24T03:52:23;10.84;64.81
75281;HTU21D;63874;47.230;39.620;2023-03-24T03:54:50;10.82;64.85
75281;HTU21D;63874;47.230;39.620;2023-03-24T03:57:18;10.80;64.92
75281;HTU21D;63874;47.230;39.620;2023-03-24T04:00:05;10.83;64.94
75281;HTU21D;63874;47.230;39.620;2023-03-24T04:08:49;10.97;65.17
75281;HTU21D;63874;47.230;39.620;2023-03-24T04:21:09;11.08;64.84
75281;HTU21D;63874;47.230;39.620;2023-03-24T04:23:47;11.09;64.95
75281;HTU21D;63874;47.230;39.620;2023-03-24T04:32:00;11.24;64.98
75281;HTU21D;63874;47.230;39.620;2023-03-24T04:34:32;11.34;64.90
75281;HTU21D;63874;47.230;39.620;2023-03-24T04:37:20;11.49;64.76
75281;HTU21D;63874;47.230;39.620;2023-03-24T04:40:04;11.61;64.54
75281;HTU21D;63874;47.230;39.620;2023-03-24T04:42:52;11.75;64.54
75281;HTU21D;63874;47.230;39.620;2023-03-24T04:45:25;11.87;64.30
75281;HTU21D;63874;47.230;39.620;2023-03-24T04:48:10;12.00;64.17
75281;HTU21D;63874;47.230;39.620;2023-03-24T04:50:53;12.14;63.98
75281;HTU21D;63874;47.230;39.620;2023-03-24T04:53:20;12.23;63.72
75281;HTU21D;63874;47.230;39.620;2023-03-24T04:58:21;12.46;63.33
75281;HTU21D;63874;47.230;39.620;2023-03-24T05:00:48;12.59;63.11
75281;HTU21D;63874;47.230;39.620;2023-03-24T05:03:15;12.70;62.85
75281;HTU21D;63874;47.230;39.620;2023-03-24T05:05:44;12.80;62.65
75281;HTU21D;63874;47.230;39.620;2023-03-24T05:08:12;12.91;62.46
75281;HTU21D;63874;47.230;39.620;2023-03-24T05:10:38;13.02;62.16
75281;HTU21D;63874;47.230;39.620;2023-03-24T05:13:06;13.10;62.04
75281;HTU21D;63874;47.230;39.620;2023-03-24T05:15:38;13.22;61.89
75281;HTU21D;63874;47.230;39.620;2023-03-24T05:18:24;13.33;61.60
75281;HTU21D;63874;47.230;39.620;2023-03-24T05:20:50;13.43;61.28
75281;HTU21D;63874;47.230;39.620;2023-03-24T05:23:20;13.49;60.96
75281;HTU21D;63874;47.230;39.620;2023-03-24T05:25:47;13.55;60.78
75281;HTU21D;63874;47.230;39.620;2023-03-24T05:28:15;13.59;60.70
75281;HTU21D;63874;47.230;39.620;2023-03-24T05:30:42;13.67;60.62
75281;HTU21D;63874;47.230;39.620;2023-03-24T05:33:28;13.78;60.41
75281;HTU21D;63874;47.230;39.620;2023-03-24T05:35:56;13.88;60.23
75281;HTU21D;63874;47.230;39.620;2023-03-24T05:38:22;13.96;60.12
75281;HTU21D;63874;47.230;39.620;2023-03-24T05:40:55;14.08;59.93
75281;HTU21D;63874;47.230;39.620;2023-03-24T05:43:22;14.18;59.70
75281;HTU21D;63874;47.230;39.620;2023-03-24T05:45:57;14.26;59.48
75281;HTU21D;63874;47.230;39.620;2023-03-24T05:48:31;14.33;59.27
75281;HTU21D;63874;47.230;39.620;2023-03-24T05:51:18;14.38;59.08
75281;HTU21D;63874;47.230;39.620;2023-03-24T05:53:46;14.45;59.10
75281;HTU21D;63874;47.230;39.620;2023-03-24T05:56:27;14.59;58.88
75281;HTU21D;63874;47.230;39.620;2023-03-24T05:59:08;14.73;58.45
75281;HTU21D;63874;47.230;39.620;2023-03-24T06:01:54;14.81;58.09
75281;HTU21D;63874;47.230;39.620;2023-03-24T06:04:46;14.86;58.04
75281;HTU21D;63874;47.230;39.620;2023-03-24T06:07:17;14.95;57.73
75281;HTU21D;63874;47.230;39.620;2023-03-24T06:09:44;15.00;57.41
75281;HTU21D;63874;47.230;39.620;2023-03-24T06:12:13;15.11;57.46
75281;HTU21D;63874;47.230;39.620;2023-03-24T06:14:49;15.23;57.34
75281;HTU21D;63874;47.230;39.620;2023-03-24T06:17:16;15.32;56.83
75281;HTU21D;63874;47.230;39.620;2023-03-24T06:19:47;15.36;56.73
75281;HTU21D;63874;47.230;39.620;2023-03-24T06:22:37;15.45;56.48
75281;HTU21D;63874;47.230;39.620;2023-03-24T06:25:08;15.53;56.07
75281;HTU21D;63874;47.230;39.620;2023-03-24T06:27:35;15.68;55.98
75281;HTU21D;63874;47.230;39.620;2023-03-24T06:30:02;15.82;55.33
75281;HTU21D;63874;47.230;39.620;2023-03-24T06:32:30;15.82;55.10
75281;HTU21D;63874;47.230;39.620;2023-03-24T06:34:56;15.82;54.98
75281;HTU21D;63874;47.230;39.620;2023-03-24T06:37:45;15.81;54.86
75281;HTU21D;63874;47.230;39.620;2023-03-24T06:40:13;15.83;54.66
75281;HTU21D;63874;47.230;39.620;2023-03-24T06:42:49;15.84;54.56
75281;HTU21D;63874;47.230;39.620;2023-03-24T06:45:15;15.80;54.52
75281;HTU21D;63874;47.230;39.620;2023-03-24T06:47:41;15.74;54.71
75281;HTU21D;63874;47.230;39.620;2023-03-24T06:50:07;15.77;54.90
75281;HTU21D;63874;47.230;39.620;2023-03-24T06:52:34;15.83;54.80
75281;HTU21D;63874;47.230;39.620;2023-03-24T06:55:01;15.90;54.75
75281;HTU21D;63874;47.230;39.620;2023-03-24T06:57:29;16.00;54.70
75281;HTU21D;63874;47.230;39.620;2023-03-24T07:00:27;16.21;54.37
75281;HTU21D;63874;47.230;39.620;2023-03-24T07:03:23;16.50;53.72
75281;HTU21D;63874;47.230;39.620;2023-03-24T07:06:08;16.73;53.35
75281;HTU21D;63874;47.230;39.620;2023-03-24T07:08:35;16.99;52.90
75281;HTU21D;63874;47.230;39.620;2023-03-24T07:11:02;17.31;52.20
75281;HTU21D;63874;47.230;39.620;2023-03-24T07:13:29;17.56;51.66
75281;HTU21D;63874;47.230;39.620;2023-03-24T07:16:02;17.73;51.05
75281;HTU21D;63874;47.230;39.620;2023-03-24T07:18:28;17.79;50.69
75281;HTU21D;63874;47.230;39.620;2023-03-24T07:21:04;17.80;50.52
75281;HTU21D;63874;47.230;39.620;2023-03-24T07:23:31;17.81;50.32
75281;HTU21D;63874;47.230;39.620;2023-03-24T07:26:19;17.75;50.05
75281;HTU21D;63874;47.230;39.620;2023-03-24T07:28:45;17.70;50.10
75281;HTU21D;63874;47.230;39.620;2023-03-24T07:31:13;17.62;49.97
75281;HTU21D;63874;47.230;39.620;2023-03-24T07:33:40;17.51;50.07
75281;HTU21D;63874;47.230;39.620;2023-03-24T07:36:07;17.40;50.37
75281;HTU21D;63874;47.230;39.620;2023-03-24T07:38:35;17.32;50.53
75281;HTU21D;63874;47.230;39.620;2023-03-24T07:41:05;17.32;50.67
75281;HTU21D;63874;47.230;39.620;2023-03-24T07:43:35;17.31;50.70
75281;HTU21D;63874;47.230;39.620;2023-03-24T07:46:36;17.31;50.79
75281;HTU21D;63874;47.230;39.620;2023-03-24T07:49:02;17.34;50.93
75281;HTU21D;63874;47.230;39.620;2023-03-24T07:51:29;17.43;50.75
75281;HTU21D;63874;47.230;39.620;2023-03-24T07:54:03;17.53;50.60
75281;HTU21D;63874;47.230;39.620;2023-03-24T07:56:36;17.58;50.29
75281;HTU21D;63874;47.230;39.620;2023-03-24T07:59:06;17.56;50.28
75281;HTU21D;63874;47.230;39.620;2023-03-24T08:01:49;17.55;50.34
75281;HTU21D;63874;47.230;39.620;2023-03-24T08:04:18;17.56;50.34
75281;HTU21D;63874;47.230;39.620;2023-03-24T08:06:56;17.65;50.29
75281;HTU21D;63874;47.230;39.620;2023-03-24T08:09:23;17.76;50.21
75281;HTU21D;63874;47.230;39.620;2023-03-24T08:11:50;17.83;49.89
75281;HTU21D;63874;47.230;39.620;2023-03-24T08:14:15;17.92;49.95
75281;HTU21D;63874;47.230;39.620;2023-03-24T08:16:44;17.94;49.91
75281;HTU21D;63874;47.230;39.620;2023-03-24T08:19:10;17.95;49.70
75281;HTU21D;63874;47.230;39.620;2023-03-24T08:21:36;18.02;49.64
75281;HTU21D;63874;47.230;39.620;2023-03-24T08:24:02;18.07;49.43
75281;HTU21D;63874;47.230;39.620;2023-03-24T08:26:28;18.09;49.41
75281;HTU21D;63874;47.230;39.620;2023-03-24T08:28:55;18.13;49.27
75281;HTU21D;63874;47.230;39.620;2023-03-24T08:31:21;18.19;49.07
75281;HTU21D;63874;47.230;39.620;2023-03-24T08:33:47;18.23;49.11
75281;HTU21D;63874;47.230;39.620;2023-03-24T08:36:13;18.30;49.11
75281;HTU21D;63874;47.230;39.620;2023-03-24T08:38:39;18.47;48.62
75281;HTU21D;63874;47.230;39.620;2023-03-24T08:41:06;18.59;48.50
75281;HTU21D;63874;47.230;39.620;2023-03-24T08:43:34;18.72;48.14
75281;HTU21D;63874;47.230;39.620;2023-03-24T08:46:01;18.81;47.96
75281;HTU21D;63874;47.230;39.620;2023-03-24T08:48:28;18.95;47.92
75281;HTU21D;63874;47.230;39.620;2023-03-24T08:50:54;19.11;47.45
75281;HTU21D;63874;47.230;39.620;2023-03-24T08:53:21;19.29;46.93
75281;HTU21D;63874;47.230;39.620;2023-03-24T08:55:47;19.38;45.78
75281;HTU21D;63874;47.230;39.620;2023-03-24T08:58:15;19.40;45.48
75281;HTU21D;63874;47.230;39.620;2023-03-24T09:00:43;19.38;45.23
75281;HTU21D;63874;47.230;39.620;2023-03-24T09:03:14;19.45;45.67
75281;HTU21D;63874;47.230;39.620;2023-03-24T09:05:43;19.58;45.46
75281;HTU21D;63874;47.230;39.620;2023-03-24T09:08:14;19.71;44.83
75281;HTU21D;63874;47.230;39.620;2023-03-24T09:10:41;19.77;44.54
75281;HTU21D;63874;47.230;39.620;2023-03-24T09:13:08;19.91;44.61
75281;HTU21D;63874;47.230;39.620;2023-03-24T09:15:34;20.06;44.59
75281;HTU21D;63874;47.230;39.620;2023-03-24T09:18:00;20.21;43.89
75281;HTU21D;63874;47.230;39.620;2023-03-24T09:20:30;20.37;44.11
75281;HTU21D;63874;47.230;39.620;2023-03-24T09:22:56;20.86;43.31
75281;HTU21D;63874;47.230;39.620;2023-03-24T09:25:22;21.78;41.84
75281;HTU21D;63874;47.230;39.620;2023-03-24T09:27:48;22.95;40.11
75281;HTU21D;63874;47.230;39.620;2023-03-24T09:30:16;24.05;37.88
75281;HTU21D;63874;47.230;39.620;2023-03-24T09:32:43;25.07;35.79
75281;HTU21D;63874;47.230;39.620;2023-03-24T09:35:10;25.74;34.02
75281;HTU21D;63874;47.230;39.620;2023-03-24T09:37:37;26.16;33.20
75281;HTU21D;63874;47.230;39.620;2023-03-24T09:40:04;26.32;32.60
75281;HTU21D;63874;47.230;39.620;2023-03-24T09:42:34;26.72;31.96
75281;HTU21D;63874;47.230;39.620;2023-03-24T09:45:12;27.61;30.77
75281;HTU21D;63874;47.230;39.620;2023-03-24T09:47:45;28.60;29.74
75281;HTU21D;63874;47.230;39.620;2023-03-24T09:50:21;29.23;28.77
75281;HTU21D;63874;47.230;39.620;2023-03-24T09:52:50;29.23;27.55
75281;HTU21D;63874;47.230;39.620;2023-03-24T09:55:21;29.07;27.98
75281;HTU21D;63874;47.230;39.620;2023-03-24T09:57:49;29.06;27.74
75281;HTU21D;63874;47.230;39.620;2023-03-24T10:00:25;29.37;27.76
75281;HTU21D;63874;47.230;39.620;2023-03-24T10:02:56;29.33;26.97
75281;HTU21D;63874;47.230;39.620;2023-03-24T10:07:58;29.58;26.71
75281;HTU21D;63874;47.230;39.620;2023-03-24T10:13:44;29.80;26.62
75281;HTU21D;63874;47.230;39.620;2023-03-24T10:16:10;29.86;26.68
75281;HTU21D;63874;47.230;39.620;2023-03-24T10:18:55;30.19;26.36
75281;HTU21D;63874;47.230;39.620;2023-03-24T10:21:26;30.08;25.69
75281;HTU21D;63874;47.230;39.620;2023-03-24T10:27:45;29.85;26.27
75281;HTU21D;63874;47.230;39.620;2023-03-24T10:29:53;29.71;26.30
75281;HTU21D;63874;47.230;39.620;2023-03-24T10:32:21;29.45;26.89
75281;HTU21D;63874;47.230;39.620;2023-03-24T10:34:57;29.05;27.27
75281;HTU21D;63874;47.230;39.620;2023-03-24T10:37:26;29.03;27.60
75281;HTU21D;63874;47.230;39.620;2023-03-24T10:39:53;29.05;27.55
75281;HTU21D;63874;47.230;39.620;2023-03-24T10:42:24;28.84;27.65
75281;HTU21D;63874;47.230;39.620;2023-03-24T10:44:50;28.68;28.36
75281;HTU21D;63874;47.230;39.620;2023-03-24T10:47:27;28.57;28.59
75281;HTU21D;63874;47.230;39.620;2023-03-24T10:52:26;28.95;28.39
75281;HTU21D;63874;47.230;39.620;2023-03-24T10:55:03;29.57;27.74
75281;HTU21D;63874;47.230;39.620;2023-03-24T10:57:31;29.64;27.30
75281;HTU21D;63874;47.230;39.620;2023-03-24T11:00:00;29.37;27.13
75281;HTU21D;63874;47.230;39.620;2023-03-24T11:02:41;29.16;27.52
75281;HTU21D;63874;47.230;39.620;2023-03-24T11:07:38;29.17;27.98
75281;HTU21D;63874;47.230;39.620;2023-03-24T11:12:37;27.46;29.02
75281;HTU21D;63874;47.230;39.620;2023-03-24T11:15:20;25.69;31.48
75281;HTU21D;63874;47.230;39.620;2023-03-24T11:18:15;24.18;33.80
75281;HTU21D;63874;47.230;39.620;2023-03-24T11:20:46;22.95;36.34
75281;HTU21D;63874;47.230;39.620;2023-03-24T11:23:37;21.99;37.94
75281;HTU21D;63874;47.230;39.620;2023-03-24T11:28:41;20.95;40.73
75281;HTU21D;63874;47.230;39.620;2023-03-24T11:31:11;20.71;41.28
75281;HTU21D;63874;47.230;39.620;2023-03-24T11:33:55;20.29;42.10
75281;HTU21D;63874;47.230;39.620;2023-03-24T11:39:15;19.37;44.48
75281;HTU21D;63874;47.230;39.620;2023-03-24T11:44:51;18.64;45.95
75281;HTU21D;63874;47.230;39.620;2023-03-24T11:47:32;18.33;47.04
75281;HTU21D;63874;47.230;39.620;2023-03-24T11:52:42;18.05;48.00
75281;HTU21D;63874;47.230;39.620;2023-03-24T11:55:20;17.84;48.70
75281;HTU21D;63874;47.230;39.620;2023-03-24T11:58:01;17.72;50.02
75281;HTU21D;63874;47.230;39.620;2023-03-24T12:00:42;17.62;49.94
75281;HTU21D;63874;47.230;39.620;2023-03-24T12:06:16;17.52;50.31
75281;HTU21D;63874;47.230;39.620;2023-03-24T12:14:04;17.23;50.83
75281;HTU21D;63874;47.230;39.620;2023-03-24T12:17:02;17.23;50.99
75281;HTU21D;63874;47.230;39.620;2023-03-24T12:19:46;17.24;51.20
75281;HTU21D;63874;47.230;39.620;2023-03-24T12:25:19;17.10;51.35
75281;HTU21D;63874;47.230;39.620;2023-03-24T12:28:23;16.98;52.01
75281;HTU21D;63874;47.230;39.620;2023-03-24T12:33:37;16.88;52.56
75281;HTU21D;63874;47.230;39.620;2023-03-24T12:49:14;16.67;53.43
75281;HTU21D;63874;47.230;39.620;2023-03-24T12:51:54;16.64;53.91
75281;HTU21D;63874;47.230;39.620;2023-03-24T12:56:57;16.56;53.95
75281;HTU21D;63874;47.230;39.620;2023-03-24T12:59:32;16.48;54.04
75281;HTU21D;63874;47.230;39.620;2023-03-24T13:02:28;16.41;54.52
75281;HTU21D;63874;47.230;39.620;2023-03-24T13:04:59;16.34;54.58
75281;HTU21D;63874;47.230;39.620;2023-03-24T13:07:34;16.29;54.85
75281;HTU21D;63874;47.230;39.620;2023-03-24T13:10:13;16.20;54.81
75281;HTU21D;63874;47.230;39.620;2023-03-24T13:13:03;16.18;55.16
75281;HTU21D;63874;47.230;39.620;2023-03-24T13:15:42;16.14;54.99
75281;HTU21D;63874;47.230;39.620;2023-03-24T13:20:49;16.06;55.37
75281;HTU21D;63874;47.230;39.620;2023-03-24T13:31:35;15.95;55.73
75281;HTU21D;63874;47.230;39.620;2023-03-24T13:34:05;15.92;55.95
75281;HTU21D;63874;47.230;39.620;2023-03-24T13:39:06;15.88;56.22
75281;HTU21D;63874;47.230;39.620;2023-03-24T13:41:36;15.83;56.55
75281;HTU21D;63874;47.230;39.620;2023-03-24T13:44:08;15.72;57.11
75281;HTU21D;63874;47.230;39.620;2023-03-24T13:46:40;15.65;57.19
75281;HTU21D;63874;47.230;39.620;2023-03-24T13:49:11;15.61;57.57
75281;HTU21D;63874;47.230;39.620;2023-03-24T13:51:44;15.49;57.85
75281;HTU21D;63874;47.230;39.620;2023-03-24T13:54:15;15.38;58.16
75281;HTU21D;63874;47.230;39.620;2023-03-24T13:59:38;15.29;58.53
75281;HTU21D;63874;47.230;39.620;2023-03-24T14:10:27;14.65;60.80
75281;HTU21D;63874;47.230;39.620;2023-03-24T14:13:00;14.41;60.89
75281;HTU21D;63874;47.230;39.620;2023-03-24T14:15:28;14.21;61.19
75281;HTU21D;63874;47.230;39.620;2023-03-24T14:21:06;13.82;62.74
75281;HTU21D;63874;47.230;39.620;2023-03-24T14:26:32;13.64;63.35
75281;HTU21D;63874;47.230;39.620;2023-03-24T14:29:01;13.54;63.50
75281;HTU21D;63874;47.230;39.620;2023-03-24T14:31:30;13.44;63.59
75281;HTU21D;63874;47.230;39.620;2023-03-24T14:34:00;13.37;63.60
75281;HTU21D;63874;47.230;39.620;2023-03-24T14:36:38;13.36;63.82
75281;HTU21D;63874;47.230;39.620;2023-03-24T14:41:47;13.32;63.59
75281;HTU21D;63874;47.230;39.620;2023-03-24T14:47:20;13.33;63.78
75281;HTU21D;63874;47.230;39.620;2023-03-24T14:49:49;13.31;64.07
75281;HTU21D;63874;47.230;39.620;2023-03-24T14:54:53;13.24;64.08
75281;HTU21D;63874;47.230;39.620;2023-03-24T14:57:23;13.21;63.99
75281;HTU21D;63874;47.230;39.620;2023-03-24T15:02:40;13.14;64.02
75281;HTU21D;63874;47.230;39.620;2023-03-24T15:05:32;13.15;64.45
75281;HTU21D;63874;47.230;39.620;2023-03-24T15:13:03;13.04;65.04
75281;HTU21D;63874;47.230;39.620;2023-03-24T15:15:29;13.01;64.95
75281;HTU21D;63874;47.230;39.620;2023-03-24T15:17:55;12.94;65.09
75281;HTU21D;63874;47.230;39.620;2023-03-24T15:20:31;12.89;65.21
75281;HTU21D;63874;47.230;39.620;2023-03-24T15:23:07;12.86;65.35
75281;HTU21D;63874;47.230;39.620;2023-03-24T15:25:39;12.80;65.70
75281;HTU21D;63874;47.230;39.620;2023-03-24T15:28:21;12.75;66.30
75281;HTU21D;63874;47.230;39.620;2023-03-24T15:30:49;12.66;66.33
75281;HTU21D;63874;47.230;39.620;2023-03-24T15:33:15;12.61;66.57
75281;HTU21D;63874;47.230;39.620;2023-03-24T15:35:42;12.52;66.96
75281;HTU21D;63874;47.230;39.620;2023-03-24T15:38:19;12.46;67.27
75281;HTU21D;63874;47.230;39.620;2023-03-24T15:41:07;12.40;67.75
75281;HTU21D;63874;47.230;39.620;2023-03-24T15:43:41;12.30;67.65
75281;HTU21D;63874;47.230;39.620;2023-03-24T15:46:26;12.20;67.85
75281;HTU21D;63874;47.230;39.620;2023-03-24T15:48:54;12.14;68.00
75281;HTU21D;63874;47.230;39.620;2023-03-24T15:51:50;12.02;68.24
75281;HTU21D;63874;47.230;39.620;2023-03-24T15:54:22;11.97;68.32
75281;HTU21D;63874;47.230;39.620;2023-03-24T15:59:34;11.79;68.78
75281;HTU21D;63874;47.230;39.620;2023-03-24T16:02:12;11.74;69.00
75281;HTU21D;63874;47.230;39.620;2023-03-24T16:04:41;11.69;68.98
75281;HTU21D;63874;47.230;39.620;2023-03-24T16:07:20;11.63;69.55
75281;HTU21D;63874;47.230;39.620;2023-03-24T16:09:55;11.59;69.62
75281;HTU21D;63874;47.230;39.620;2023-03-24T16:12:23;11.51;69.52
75281;HTU21D;63874;47.230;39.620;2023-03-24T16:14:50;11.42;70.42
75281;HTU21D;63874;47.230;39.620;2023-03-24T16:17:16;11.42;70.52
75281;HTU21D;63874;47.230;39.620;2023-03-24T16:19:42;11.38;70.50
75281;HTU21D;63874;47.230;39.620;2023-03-24T16:22:11;11.31;70.75
75281;HTU21D;63874;47.230;39.620;2023-03-24T16:24:37;11.28;70.51
75281;HTU21D;63874;47.230;39.620;2023-03-24T16:27:03;11.24;70.74
75281;HTU21D;63874;47.230;39.620;2023-03-24T16:29:29;11.20;70.69
75281;HTU21D;63874;47.230;39.620;2023-03-24T16:31:55;11.19;70.64
75281;HTU21D;63874;47.230;39.620;2023-03-24T16:34:22;11.15;70.68
75281;HTU21D;63874;47.230;39.620;2023-03-24T16:36:50;11.15;71.08
75281;HTU21D;63874;47.230;39.620;2023-03-24T16:39:24;11.13;71.26
75281;HTU21D;63874;47.230;39.620;2023-03-24T16:41:51;11.09;71.55
75281;HTU21D;63874;47.230;39.620;2023-03-24T16:44:18;11.04;71.80
75281;HTU21D;63874;47.230;39.620;2023-03-24T16:46:45;11.07;72.12
75281;HTU21D;63874;47.230;39.620;2023-03-24T16:49:15;11.00;72.06
75281;HTU21D;63874;47.230;39.620;2023-03-24T16:51:42;10.98;72.20
75281;HTU21D;63874;47.230;39.620;2023-03-24T16:54:08;10.94;72.45
75281;HTU21D;63874;47.230;39.620;2023-03-24T16:56:35;10.92;72.30
75281;HTU21D;63874;47.230;39.620;2023-03-24T16:59:02;10.89;72.38
75281;HTU21D;63874;47.230;39.620;2023-03-24T17:01:30;10.86;72.59
75281;HTU21D;63874;47.230;39.620;2023-03-24T17:04:00;10.85;72.67
75281;HTU21D;63874;47.230;39.620;2023-03-24T17:06:28;10.81;72.82
75281;HTU21D;63874;47.230;39.620;2023-03-24T17:08:55;10.80;72.74
75281;HTU21D;63874;47.230;39.620;2023-03-24T17:11:59;10.80;73.12
75281;HTU21D;63874;47.230;39.620;2023-03-24T17:14:26;10.78;72.97
75281;HTU21D;63874;47.230;39.620;2023-03-24T17:16:55;10.78;73.61
75281;HTU21D;63874;47.230;39.620;2023-03-24T17:19:22;10.77;73.39
75281;HTU21D;63874;47.230;39.620;2023-03-24T17:24:17;10.75;74.16
75281;HTU21D;63874;47.230;39.620;2023-03-24T17:26:43;10.74;73.83
75281;HTU21D;63874;47.230;39.620;2023-03-24T17:29:11;10.72;74.22
75281;HTU21D;63874;47.230;39.620;2023-03-24T17:31:37;10.69;74.49
75281;HTU21D;63874;47.230;39.620;2023-03-24T17:34:03;10.69;74.59
75281;HTU21D;63874;47.230;39.620;2023-03-24T17:36:29;10.66;74.37
75281;HTU21D;63874;47.230;39.620;2023-03-24T17:38:55;10.67;74.41
75281;HTU21D;63874;47.230;39.620;2023-03-24T17:41:21;10.64;74.51
75281;HTU21D;63874;47.230;39.620;2023-03-24T17:43:48;10.66;74.57
75281;HTU21D;63874;47.230;39.620;2023-03-24T17:46:14;10.64;74.83
75281;HTU21D;63874;47.230;39.620;2023-03-24T17:48:40;10.64;75.21
75281;HTU21D;63874;47.230;39.620;2023-03-24T17:51:06;10.63;75.09
75281;HTU21D;63874;47.230;39.620;2023-03-24T17:53:32;10.62;75.38
75281;HTU21D;63874;47.230;39.620;2023-03-24T17:56:00;10.58;75.42
75281;HTU21D;63874;47.230;39.620;2023-03-24T17:58:31;10.54;75.70
75281;HTU21D;63874;47.230;39.620;2023-03-24T18:00:57;10.56;75.75
75281;HTU21D;63874;47.230;39.620;2023-03-24T18:03:25;10.56;75.89
75281;HTU21D;63874;47.230;39.620;2023-03-24T18:05:52;10.52;75.82